Aviation Digital Data Service (ADDS)

Output produced by METARs form (1440 UTC 24 July 2014)
found at http://www.aviationweather.gov/adds/metars/
 
KLGA 241433Z 2415/2512 35010KT P6SM SCT030 SCT050 BKN250 
     FM250000 36009KT P6SM SCT060 SCT250